createdAt,value
2017-11-21T00:00:43.513Z,6.50
2017-11-21T00:01:49.270Z,5.50
2017-11-21T00:02:54.966Z,5.50
2017-11-21T00:04:00.670Z,7.53
2017-11-21T00:05:07.124Z,5.93
2017-11-21T00:06:13.583Z,5.80
2017-11-21T00:07:20.065Z,5.55
2017-11-21T00:08:25.764Z,5.95
2017-11-21T00:09:31.442Z,6.45
2017-11-21T00:10:37.126Z,6.37
2017-11-21T00:11:42.813Z,6.35
2017-11-21T00:12:48.534Z,6.03
2017-11-21T00:13:54.213Z,6.35
2017-11-21T00:14:59.906Z,5.60
2017-11-21T00:16:05.607Z,5.62
2017-11-21T00:17:11.299Z,7.10
2017-11-21T00:18:17.787Z,5.93
2017-11-21T00:19:23.481Z,6.40
2017-11-21T00:20:29.170Z,6.40
2017-11-21T00:21:34.897Z,6.10
2017-11-21T00:22:40.597Z,6.35
2017-11-21T00:23:46.328Z,5.65
2017-11-21T00:24:52.015Z,6.28
2017-11-21T00:25:57.502Z,7.40
2017-11-21T00:27:03.219Z,6.28
2017-11-21T00:28:09.231Z,5.62
2017-11-21T00:29:14.972Z,5.93
2017-11-21T00:30:20.674Z,6.10
2017-11-21T00:31:26.376Z,5.07
2017-11-21T00:32:32.064Z,6.05
2017-11-21T00:33:37.745Z,6.07
2017-11-21T00:34:43.756Z,5.57
2017-11-21T00:35:49.445Z,5.00
2017-11-21T00:36:55.151Z,5.40
2017-11-21T00:38:00.844Z,6.50
2017-11-21T00:39:05.868Z,5.53
2017-11-21T00:40:11.576Z,6.15
2017-11-21T00:41:17.285Z,5.93
2017-11-21T00:42:22.969Z,5.87
2017-11-21T00:43:28.662Z,5.80
2017-11-21T00:44:34.361Z,5.75
2017-11-21T00:45:39.911Z,5.65
2017-11-21T00:46:45.809Z,6.00
2017-11-21T00:47:52.572Z,6.80
2017-11-21T00:48:58.094Z,10.95
2017-11-21T00:50:04.362Z,7.18
2017-11-21T00:51:09.957Z,7.65
2017-11-21T00:52:15.641Z,6.22
2017-11-21T00:53:22.094Z,6.30
2017-11-21T00:54:28.551Z,7.15
2017-11-21T00:55:35.016Z,5.93
2017-11-21T00:56:40.756Z,5.65
2017-11-21T00:57:47.201Z,6.87
2017-11-21T00:58:53.660Z,6.22
2017-11-21T01:00:00.114Z,6.12
2017-11-21T01:01:06.578Z,8.23
2017-11-21T01:02:13.074Z,6.55
2017-11-21T01:03:18.774Z,6.22
2017-11-21T01:04:25.234Z,5.97
2017-11-21T01:05:31.697Z,5.70
2017-11-21T01:06:38.154Z,5.97
2017-11-21T01:07:44.640Z,6.93
2017-11-21T01:08:50.336Z,6.03
2017-11-21T01:09:56.046Z,5.80
2017-11-21T01:11:01.547Z,5.85
2017-11-21T01:12:07.225Z,6.82
2017-11-21T01:13:12.964Z,7.50
2017-11-21T01:14:18.654Z,6.60
2017-11-21T01:15:25.105Z,6.85
2017-11-21T01:16:31.870Z,6.85
2017-11-21T01:17:38.332Z,6.12
2017-11-21T01:18:44.812Z,5.90
2017-11-21T01:19:50.508Z,6.90
2017-11-21T01:20:56.224Z,10.40
2017-11-21T01:22:01.914Z,6.95
2017-11-21T01:23:08.369Z,7.22
2017-11-21T01:24:14.854Z,6.35
2017-11-21T01:25:20.532Z,6.55
2017-11-21T01:26:26.230Z,6.70
2017-11-21T01:27:31.584Z,6.40
2017-11-21T01:28:37.283Z,7.03
2017-11-21T01:29:43.002Z,7.40
2017-11-21T01:30:49.228Z,5.95
2017-11-21T01:31:54.921Z,7.75
2017-11-21T01:33:01.378Z,6.60
2017-11-21T01:34:07.824Z,6.53
2017-11-21T01:35:14.325Z,6.50
2017-11-21T01:36:20.033Z,7.25
2017-11-21T01:37:26.485Z,7.60
2017-11-21T01:38:32.178Z,8.13
2017-11-21T01:39:37.867Z,6.43
2017-11-21T01:40:44.337Z,6.78
2017-11-21T01:41:50.031Z,6.60
2017-11-21T01:42:55.729Z,6.30
2017-11-21T01:44:01.422Z,6.03
2017-11-21T01:45:06.929Z,5.30
2017-11-21T01:46:12.312Z,6.62
2017-11-21T01:47:18.777Z,7.30
2017-11-21T01:48:24.472Z,6.57
2017-11-21T01:49:30.162Z,7.03
2017-11-21T01:50:35.872Z,7.57
2017-11-21T01:51:42.356Z,5.93
2017-11-21T01:52:48.045Z,6.43
2017-11-21T01:53:53.738Z,6.37
2017-11-21T01:54:59.417Z,6.57
2017-11-21T01:56:04.915Z,5.65
2017-11-21T01:57:10.632Z,6.12
2017-11-21T01:58:17.093Z,5.37
2017-11-21T01:59:23.600Z,5.60
2017-11-21T02:00:29.296Z,5.90
2017-11-21T02:01:35.752Z,5.70
2017-11-21T02:02:41.915Z,5.40
2017-11-21T02:03:47.614Z,6.40
2017-11-21T02:04:53.310Z,6.28
2017-11-21T02:05:59.217Z,5.80
2017-11-21T02:07:04.808Z,6.62
2017-11-21T02:08:10.532Z,6.12
2017-11-21T02:09:16.301Z,6.00
2017-11-21T02:10:22.002Z,6.20
2017-11-21T02:11:28.063Z,5.72
2017-11-21T02:12:33.746Z,6.10
2017-11-21T02:13:39.462Z,5.70
2017-11-21T02:14:45.154Z,6.40
2017-11-21T02:15:50.826Z,5.75
2017-11-21T02:16:56.515Z,6.20
2017-11-21T02:18:02.222Z,5.87
2017-11-21T02:19:07.285Z,5.07
2017-11-21T02:20:13.987Z,6.55
2017-11-21T02:21:19.025Z,6.40
2017-11-21T02:22:24.394Z,6.97
2017-11-21T02:23:29.758Z,5.53
2017-11-21T02:24:35.912Z,7.15
2017-11-21T02:25:41.701Z,6.62
2017-11-21T02:26:47.068Z,5.45
2017-11-21T02:27:52.421Z,6.53
2017-11-21T02:28:58.550Z,6.37
2017-11-21T02:30:04.698Z,6.37
2017-11-21T02:31:10.047Z,6.32
2017-11-21T02:32:16.532Z,5.95
2017-11-21T02:33:21.567Z,7.60
2017-11-21T02:34:26.610Z,7.10
2017-11-21T02:35:31.994Z,6.37
2017-11-21T02:36:37.790Z,7.30
2017-11-21T02:37:43.787Z,6.60
2017-11-21T02:38:49.684Z,6.53
2017-11-21T02:39:55.863Z,6.53
2017-11-21T02:41:01.379Z,6.25
2017-11-21T02:42:07.067Z,6.53
2017-11-21T02:43:12.095Z,6.78
2017-11-21T02:44:17.129Z,6.97
2017-11-21T02:45:22.705Z,7.28
2017-11-21T02:46:28.418Z,7.00
2017-11-21T02:47:33.768Z,6.62
2017-11-21T02:48:38.813Z,6.90
2017-11-21T02:49:44.548Z,6.00
2017-11-21T02:50:49.921Z,6.57
2017-11-21T02:51:54.981Z,7.10
2017-11-21T02:53:00.338Z,6.55
2017-11-21T02:54:05.378Z,6.72
2017-11-21T02:55:10.415Z,7.05
2017-11-21T02:56:15.456Z,7.43
2017-11-21T02:57:20.499Z,7.22
2017-11-21T02:58:25.862Z,7.15
2017-11-21T02:59:31.545Z,7.25
2017-11-21T03:00:37.694Z,6.43
2017-11-21T03:01:43.394Z,7.35
2017-11-21T03:02:49.108Z,7.32
2017-11-21T03:03:54.806Z,6.57
2017-11-21T03:05:01.248Z,6.53
2017-11-21T03:06:06.935Z,6.55
2017-11-21T03:07:12.618Z,7.82
2017-11-21T03:08:18.334Z,6.95
2017-11-21T03:09:24.039Z,7.07
2017-11-21T03:10:29.719Z,8.23
2017-11-21T03:11:35.410Z,7.03
2017-11-21T03:12:40.201Z,7.25
2017-11-21T03:13:45.942Z,7.78
2017-11-21T03:14:51.633Z,6.40
2017-11-21T03:15:57.331Z,7.68
2017-11-21T03:17:03.585Z,7.70
2017-11-21T03:18:09.722Z,7.22
2017-11-21T03:19:15.446Z,7.10
2017-11-21T03:20:37.898Z,7.07
2017-11-21T03:22:00.524Z,7.07
2017-11-21T03:23:23.090Z,6.80
2017-11-21T03:24:46.562Z,6.82
2017-11-21T03:26:09.203Z,7.10
2017-11-21T03:27:16.923Z,6.10
2017-11-21T03:28:43.129Z,6.80
2017-11-21T03:29:48.517Z,6.25
2017-11-21T03:30:54.315Z,6.25
2017-11-21T03:32:00.014Z,6.65
2017-11-21T03:33:06.480Z,6.65
2017-11-21T03:34:12.933Z,6.85
2017-11-21T03:35:18.642Z,6.95
2017-11-21T03:36:24.005Z,6.37
2017-11-21T03:37:29.217Z,7.12
2017-11-21T03:38:34.570Z,6.28
2017-11-21T03:39:40.257Z,6.40
2017-11-21T03:40:46.045Z,6.78
2017-11-21T03:41:51.733Z,6.93
2017-11-21T03:42:57.431Z,6.53
2017-11-21T03:44:03.885Z,6.43
2017-11-21T03:45:10.364Z,6.43
2017-11-21T03:46:15.430Z,6.20
2017-11-21T03:47:21.123Z,7.15
2017-11-21T03:48:26.810Z,6.35
2017-11-21T03:49:32.534Z,7.05
2017-11-21T03:50:38.246Z,7.35
2017-11-21T03:51:44.734Z,6.43
2017-11-21T03:52:49.754Z,6.30
2017-11-21T03:53:55.445Z,5.75
2017-11-21T03:55:01.130Z,6.55
2017-11-21T03:56:06.826Z,5.70
2017-11-21T03:57:12.548Z,5.90
2017-11-21T03:58:18.245Z,6.03
2017-11-21T03:59:23.942Z,6.53
2017-11-21T04:00:28.728Z,6.05
2017-11-21T04:01:34.736Z,6.00
2017-11-21T04:02:41.218Z,6.90
2017-11-21T04:03:46.710Z,6.15
2017-11-21T04:04:53.159Z,6.15
2017-11-21T04:05:58.849Z,5.95
2017-11-21T04:07:04.381Z,5.78
2017-11-21T04:08:10.122Z,6.10
2017-11-21T04:09:15.826Z,6.65
2017-11-21T04:10:21.531Z,6.22
2017-11-21T04:11:27.226Z,6.65
2017-11-21T04:12:33.685Z,6.12
2017-11-21T04:13:39.417Z,5.70
2017-11-21T04:14:46.086Z,6.30
2017-11-21T04:15:52.548Z,6.43
2017-11-21T04:16:59.001Z,6.45
2017-11-21T04:18:05.449Z,7.32
2017-11-21T04:19:11.934Z,7.30
2017-11-21T04:20:17.629Z,5.80
2017-11-21T04:21:23.320Z,6.15
2017-11-21T04:22:29.022Z,6.45
2017-11-21T04:23:34.714Z,7.85
2017-11-21T04:24:40.426Z,6.93
2017-11-21T04:25:46.139Z,6.85
2017-11-21T04:26:51.848Z,7.05
2017-11-21T04:27:57.525Z,6.10
2017-11-21T04:29:04.009Z,6.18
2017-11-21T04:30:09.720Z,6.87
2017-11-21T04:31:15.410Z,6.60
2017-11-21T04:32:20.778Z,6.50
2017-11-21T04:33:26.514Z,7.22
2017-11-21T04:34:32.202Z,5.90
2017-11-21T04:35:37.920Z,6.93
2017-11-21T04:36:43.629Z,6.68
2017-11-21T04:37:49.319Z,6.62
2017-11-21T04:38:54.682Z,6.60
2017-11-21T04:40:00.165Z,6.47
2017-11-21T04:41:06.645Z,6.90
2017-11-21T04:42:12.342Z,6.80
2017-11-21T04:43:18.030Z,7.37
2017-11-21T04:44:23.393Z,7.18
2017-11-21T04:45:29.093Z,7.43
2017-11-21T04:46:35.593Z,7.40
2017-11-21T04:47:41.293Z,7.78
2017-11-21T04:48:46.994Z,6.43
2017-11-21T04:49:52.975Z,6.78
2017-11-21T04:50:58.658Z,7.00
2017-11-21T04:52:04.366Z,8.18
2017-11-21T04:53:10.061Z,7.60
2017-11-21T04:54:15.751Z,7.25
2017-11-21T04:55:21.241Z,7.70
2017-11-21T04:56:26.942Z,7.25
2017-11-21T04:57:32.653Z,7.90
2017-11-21T04:58:38.340Z,6.95
2017-11-21T04:59:44.031Z,7.90
2017-11-21T05:00:49.741Z,7.55
2017-11-21T05:01:55.425Z,8.10
2017-11-21T05:03:01.149Z,7.07
2017-11-21T05:04:07.607Z,7.32
2017-11-21T05:05:13.301Z,7.65
2017-11-21T05:06:18.994Z,7.43
2017-11-21T05:07:24.682Z,7.53
2017-11-21T05:08:30.420Z,7.40
2017-11-21T05:09:36.296Z,7.40
2017-11-21T05:10:42.754Z,7.30
2017-11-21T05:11:49.217Z,6.82
2017-11-21T05:12:54.903Z,6.87
2017-11-21T05:14:00.618Z,6.65
2017-11-21T05:15:07.074Z,7.03
2017-11-21T05:16:12.098Z,7.10
2017-11-21T05:17:17.801Z,7.18
2017-11-21T05:18:23.551Z,7.68
2017-11-21T05:19:29.260Z,6.20
2017-11-21T05:20:34.720Z,7.03
2017-11-21T05:21:40.861Z,7.22
2017-11-21T05:22:45.912Z,7.50
2017-11-21T05:23:52.372Z,7.00
2017-11-21T05:24:58.317Z,8.00
2017-11-21T05:26:04.778Z,7.90
2017-11-21T05:27:11.249Z,7.25
2017-11-21T05:28:16.936Z,8.15
2017-11-21T05:29:22.635Z,7.30
2017-11-21T05:30:28.020Z,7.80
2017-11-21T05:31:33.376Z,7.50
2017-11-21T05:32:55.866Z,6.37
2017-11-21T05:34:01.564Z,7.40
2017-11-21T05:35:08.018Z,6.87
2017-11-21T05:36:14.259Z,6.90
2017-11-21T05:37:19.962Z,6.70
2017-11-21T05:38:25.645Z,7.00
2017-11-21T05:39:32.108Z,7.65
2017-11-21T05:40:38.593Z,6.95
2017-11-21T05:41:44.311Z,7.28
2017-11-21T05:42:50.767Z,7.65
2017-11-21T05:43:56.457Z,6.12
2017-11-21T05:45:02.177Z,6.68
2017-11-21T05:46:07.536Z,6.65
2017-11-21T05:47:13.247Z,7.20
2017-11-21T05:48:18.947Z,6.97
2017-11-21T05:49:24.305Z,6.95
2017-11-21T05:50:29.331Z,6.75
2017-11-21T05:51:34.689Z,6.97
2017-11-21T05:52:40.062Z,6.40
2017-11-21T05:53:45.749Z,6.75
2017-11-21T05:54:51.428Z,6.43
2017-11-21T05:55:58.628Z,7.93
2017-11-21T05:57:05.101Z,7.25
2017-11-21T05:58:11.590Z,6.37
2017-11-21T05:59:17.286Z,6.87
2017-11-21T06:00:23.753Z,7.10
2017-11-21T06:01:30.210Z,7.07
2017-11-21T06:02:36.017Z,7.82
2017-11-21T06:03:41.737Z,6.87
2017-11-21T06:04:47.426Z,7.00
2017-11-21T06:05:53.897Z,7.28
2017-11-21T06:06:59.625Z,6.50
2017-11-21T06:08:06.126Z,7.40
2017-11-21T06:09:11.961Z,7.28
2017-11-21T06:10:17.678Z,6.80
2017-11-21T06:11:23.424Z,6.75
2017-11-21T06:12:29.125Z,6.93
2017-11-21T06:13:34.891Z,6.90
2017-11-21T06:14:41.393Z,6.85
2017-11-21T06:15:47.093Z,6.90
2017-11-21T06:16:53.578Z,6.82
2017-11-21T06:17:59.460Z,7.60
2017-11-21T06:19:05.150Z,7.10
2017-11-21T06:20:10.861Z,6.78
2017-11-21T06:21:17.001Z,9.65
2017-11-21T06:22:22.701Z,8.05
2017-11-21T06:23:28.383Z,6.20
2017-11-21T06:24:34.066Z,6.75
2017-11-21T06:25:39.793Z,6.60
2017-11-21T06:26:46.297Z,7.15
2017-11-21T06:27:51.990Z,6.75
2017-11-21T06:28:58.454Z,7.12
2017-11-21T06:30:04.138Z,6.20
2017-11-21T06:31:09.864Z,6.43
2017-11-21T06:32:15.555Z,6.07
2017-11-21T06:33:22.075Z,6.35
2017-11-21T06:34:27.814Z,6.50
2017-11-21T06:35:33.512Z,6.72
2017-11-21T06:36:39.857Z,6.60
2017-11-21T06:37:46.315Z,6.65
2017-11-21T06:38:52.839Z,6.80
2017-11-21T06:39:58.533Z,6.90
2017-11-21T06:41:04.240Z,6.95
2017-11-21T06:42:10.736Z,7.00
2017-11-21T06:43:16.426Z,8.55
2017-11-21T06:44:22.112Z,7.75
2017-11-21T06:45:27.817Z,7.37
2017-11-21T06:46:33.517Z,7.10
2017-11-21T06:47:39.266Z,7.05
2017-11-21T06:48:44.951Z,7.32
2017-11-21T06:49:50.663Z,7.62
2017-11-21T06:50:56.356Z,6.45
2017-11-21T06:52:01.735Z,7.12
2017-11-21T06:53:07.463Z,9.13
2017-11-21T06:54:13.259Z,6.60
2017-11-21T06:55:19.721Z,6.30
2017-11-21T06:56:26.342Z,6.12
2017-11-21T06:57:32.043Z,6.82
2017-11-21T06:58:37.557Z,8.82
2017-11-21T06:59:43.260Z,6.90
2017-11-21T07:00:49.752Z,5.85
2017-11-21T07:01:55.440Z,6.20
2017-11-21T07:03:00.802Z,6.45
2017-11-21T07:04:06.513Z,6.70
2017-11-21T07:05:12.218Z,6.53
2017-11-21T07:06:17.241Z,6.53
2017-11-21T07:07:22.984Z,7.28
2017-11-21T07:08:28.780Z,6.97
2017-11-21T07:09:35.625Z,7.45
2017-11-21T07:10:41.530Z,7.00
2017-11-21T07:11:47.556Z,6.05
2017-11-21T07:12:54.028Z,6.85
2017-11-21T07:14:00.510Z,6.75
2017-11-21T07:15:07.256Z,7.30
2017-11-21T07:16:13.705Z,7.47
2017-11-21T07:17:20.315Z,7.05
2017-11-21T07:18:26.029Z,7.35
2017-11-21T07:19:31.709Z,6.55
2017-11-21T07:20:37.600Z,7.47
2017-11-21T07:21:44.167Z,7.37
2017-11-21T07:22:50.621Z,7.90
2017-11-21T07:23:56.133Z,7.10
2017-11-21T07:25:01.837Z,7.00
2017-11-21T07:26:07.589Z,7.72
2017-11-21T07:27:13.292Z,9.82
2017-11-21T07:28:19.387Z,8.88
2017-11-21T07:29:25.083Z,7.68
2017-11-21T07:30:32.081Z,7.62
2017-11-21T07:31:37.788Z,7.80
2017-11-21T07:32:43.542Z,7.50
2017-11-21T07:33:49.194Z,7.87
2017-11-21T07:34:54.897Z,9.05
2017-11-21T07:36:00.720Z,7.45
2017-11-21T07:37:06.442Z,6.68
2017-11-21T07:38:12.141Z,7.18
2017-11-21T07:39:17.830Z,8.02
2017-11-21T07:40:23.686Z,8.05
2017-11-21T07:41:29.628Z,6.65
2017-11-21T07:42:36.118Z,7.65
2017-11-21T07:43:41.814Z,7.93
2017-11-21T07:44:47.502Z,7.70
2017-11-21T07:45:53.186Z,8.27
2017-11-21T07:46:58.873Z,8.15
2017-11-21T07:48:04.592Z,7.78
2017-11-21T07:49:11.044Z,7.55
2017-11-21T07:50:16.733Z,8.15
2017-11-21T07:51:22.489Z,8.05
2017-11-21T07:52:28.457Z,7.85
2017-11-21T07:53:34.439Z,8.82
2017-11-21T07:54:41.098Z,8.00
2017-11-21T07:55:47.631Z,8.05
2017-11-21T07:56:54.381Z,7.93
2017-11-21T07:58:00.421Z,7.55
2017-11-21T07:59:06.160Z,7.32
2017-11-21T08:00:11.854Z,8.73
2017-11-21T08:01:17.559Z,8.05
2017-11-21T08:02:24.025Z,9.77
2017-11-21T08:03:29.729Z,8.20
2017-11-21T08:04:35.449Z,7.55
2017-11-21T08:05:40.815Z,8.38
2017-11-21T08:06:46.506Z,8.05
2017-11-21T08:07:52.221Z,7.57
2017-11-21T08:08:57.909Z,8.27
2017-11-21T08:10:03.440Z,8.18
2017-11-21T08:11:08.799Z,9.00
2017-11-21T08:12:14.154Z,7.47
2017-11-21T08:13:19.834Z,9.70
2017-11-21T08:14:25.630Z,7.43
2017-11-21T08:15:33.950Z,7.65
2017-11-21T08:16:39.731Z,7.53
2017-11-21T08:17:45.128Z,8.00
2017-11-21T08:18:52.802Z,8.55
2017-11-21T08:19:58.713Z,7.43
2017-11-21T08:21:05.574Z,9.13
2017-11-21T08:22:13.731Z,8.02
2017-11-21T08:23:21.525Z,8.88
2017-11-21T08:24:27.593Z,7.00
2017-11-21T08:25:33.555Z,8.30
2017-11-21T08:26:39.458Z,6.93
2017-11-21T08:27:46.212Z,7.43
2017-11-21T08:28:52.898Z,7.43
2017-11-21T08:29:58.856Z,8.05
2017-11-21T08:31:04.770Z,7.53
2017-11-21T08:32:14.937Z,7.28
2017-11-21T08:33:22.185Z,7.85
2017-11-21T08:34:32.229Z,8.23
2017-11-21T08:35:40.825Z,6.37
2017-11-21T08:36:50.821Z,7.75
2017-11-21T08:37:56.684Z,5.93
2017-11-21T08:39:02.430Z,6.07
2017-11-21T08:40:08.770Z,6.45
2017-11-21T08:41:14.566Z,6.45
2017-11-21T08:42:21.082Z,6.30
2017-11-21T08:43:27.016Z,6.60
2017-11-21T08:44:32.931Z,6.28
2017-11-21T08:45:39.275Z,6.32
2017-11-21T08:46:47.086Z,5.12
2017-11-21T08:47:52.957Z,7.30
2017-11-21T08:48:58.954Z,4.97
2017-11-21T08:50:04.867Z,4.40
2017-11-21T08:51:10.756Z,4.75
2017-11-21T08:52:17.474Z,4.37
2017-11-21T08:53:23.440Z,4.18
2017-11-21T08:54:30.227Z,5.07
2017-11-21T08:55:36.197Z,4.00
2017-11-21T08:56:42.133Z,3.65
2017-11-21T08:57:48.829Z,3.85
2017-11-21T08:58:54.726Z,3.90
2017-11-21T09:00:01.227Z,3.58
2017-11-21T09:01:06.940Z,3.20
2017-11-21T09:02:12.652Z,3.65
2017-11-21T09:03:19.137Z,2.70
2017-11-21T09:04:24.986Z,2.90
2017-11-21T09:05:30.918Z,2.25
2017-11-21T09:06:36.796Z,3.05
2017-11-21T09:07:42.526Z,3.00
2017-11-21T09:08:48.258Z,2.40
2017-11-21T09:09:54.221Z,2.78
2017-11-21T09:11:00.248Z,4.25
2017-11-21T09:12:06.131Z,2.42
2017-11-21T09:13:12.143Z,2.92
2017-11-21T09:14:18.080Z,2.22
2017-11-21T09:15:24.001Z,2.75
2017-11-21T09:16:30.519Z,2.92
2017-11-21T09:17:36.278Z,2.90
2017-11-21T09:18:42.094Z,2.45
2017-11-21T09:19:47.889Z,2.10
2017-11-21T09:20:53.594Z,2.55
2017-11-21T09:21:59.651Z,3.08
2017-11-21T09:23:05.614Z,4.50
2017-11-21T09:24:11.554Z,2.65
2017-11-21T09:25:17.603Z,2.40
2017-11-21T09:26:23.479Z,2.40
2017-11-21T09:27:29.421Z,3.58
2017-11-21T09:28:35.414Z,2.08
2017-11-21T09:29:41.310Z,2.50
2017-11-21T09:30:47.845Z,2.10
2017-11-21T09:31:53.554Z,2.10
2017-11-21T09:33:00.054Z,1.60
2017-11-21T09:34:06.266Z,2.80
2017-11-21T09:35:12.740Z,2.00
2017-11-21T09:36:18.493Z,2.12
2017-11-21T09:37:24.529Z,1.80
2017-11-21T09:38:30.283Z,3.33
2017-11-21T09:39:36.570Z,1.95
2017-11-21T09:40:42.395Z,1.95
2017-11-21T09:41:48.251Z,1.55
2017-11-21T09:42:54.152Z,1.98
2017-11-21T09:44:00.773Z,1.60
2017-11-21T09:45:06.731Z,3.35
2017-11-21T09:46:13.469Z,2.05
2017-11-21T09:47:19.245Z,2.35
2017-11-21T09:48:25.001Z,1.30
2017-11-21T09:49:31.643Z,1.70
2017-11-21T09:50:37.973Z,2.10
2017-11-21T09:51:44.014Z,1.73
2017-11-21T09:52:50.810Z,1.60
2017-11-21T09:53:57.508Z,1.65
2017-11-21T09:55:03.341Z,1.90
2017-11-21T09:56:09.118Z,4.25
2017-11-21T09:57:15.108Z,1.50
2017-11-21T09:58:21.969Z,2.08
2017-11-21T09:59:29.080Z,1.50
2017-11-21T10:00:34.903Z,1.33
2017-11-21T10:01:40.618Z,1.40
2017-11-21T10:02:46.125Z,2.90
2017-11-21T10:03:51.877Z,1.67
2017-11-21T10:04:57.809Z,1.30
2017-11-21T10:06:03.558Z,1.20
2017-11-21T10:07:09.276Z,1.73
2017-11-21T10:08:14.710Z,2.70
2017-11-21T10:09:20.430Z,1.70
2017-11-21T10:10:27.419Z,1.48
2017-11-21T10:11:33.160Z,1.80
2017-11-21T10:12:38.858Z,1.30
2017-11-21T10:13:44.572Z,1.42
2017-11-21T10:14:50.281Z,1.50
2017-11-21T10:15:55.982Z,1.08
2017-11-21T10:17:01.385Z,1.17
2017-11-21T10:18:07.207Z,1.48
2017-11-21T10:19:13.339Z,1.52
2017-11-21T10:20:20.248Z,1.10
2017-11-21T10:21:26.350Z,1.45
2017-11-21T10:22:31.931Z,1.40
2017-11-21T10:23:37.638Z,1.27
2017-11-21T10:24:44.033Z,1.70
2017-11-21T10:25:50.010Z,2.10
2017-11-21T10:26:55.721Z,1.20
2017-11-21T10:28:02.138Z,1.40
2017-11-21T10:29:09.066Z,1.42
2017-11-21T10:30:14.766Z,1.00
2017-11-21T10:31:20.948Z,1.40
2017-11-21T10:32:27.214Z,1.20
2017-11-21T10:33:33.096Z,1.00
2017-11-21T10:34:38.933Z,1.65
2017-11-21T10:35:45.636Z,1.40
2017-11-21T10:36:51.351Z,1.00
2017-11-21T10:37:57.231Z,1.10
2017-11-21T10:39:03.034Z,1.15
2017-11-21T10:40:08.735Z,1.45
2017-11-21T10:41:14.114Z,1.15
2017-11-21T10:42:19.851Z,0.90
2017-11-21T10:43:25.905Z,1.08
2017-11-21T10:44:31.618Z,1.17
2017-11-21T10:45:38.086Z,1.00
2017-11-21T10:46:44.826Z,1.30
2017-11-21T10:47:51.298Z,1.10
2017-11-21T10:48:57.776Z,1.55
2017-11-21T10:50:03.510Z,1.25
2017-11-21T10:51:09.970Z,0.90
2017-11-21T10:52:15.702Z,1.10
2017-11-21T10:53:22.200Z,1.10
2017-11-21T10:54:28.118Z,1.23
2017-11-21T10:55:33.941Z,1.00
2017-11-21T10:56:40.214Z,1.50
2017-11-21T10:57:45.420Z,1.15
2017-11-21T10:58:51.130Z,1.20
2017-11-21T10:59:56.838Z,1.05
2017-11-21T11:01:01.942Z,1.25
2017-11-21T11:02:07.769Z,1.15
2017-11-21T11:03:13.133Z,1.53
2017-11-21T11:04:18.198Z,1.20
2017-11-21T11:05:23.374Z,1.00
2017-11-21T11:06:28.913Z,1.37
2017-11-21T11:07:34.097Z,1.40
2017-11-21T11:08:39.138Z,1.25
2017-11-21T11:09:44.759Z,1.10
2017-11-21T11:10:50.835Z,1.05
2017-11-21T11:11:56.117Z,1.00
2017-11-21T11:13:01.358Z,1.00
2017-11-21T11:14:07.414Z,1.30
2017-11-21T11:15:16.503Z,1.10
2017-11-21T11:16:25.317Z,1.15
2017-11-21T11:17:34.488Z,1.27
2017-11-21T11:18:40.552Z,1.25
2017-11-21T11:20:47.049Z,1.00
2017-11-21T11:21:53.079Z,1.00
2017-11-21T11:22:58.958Z,1.40
2017-11-21T11:24:04.012Z,0.93
2017-11-21T11:25:09.636Z,0.90
2017-11-21T11:26:15.300Z,1.02
2017-11-21T11:27:20.918Z,0.90
2017-11-21T11:28:26.315Z,0.90
2017-11-21T11:29:31.346Z,1.40
2017-11-21T11:30:37.976Z,1.70
2017-11-21T11:31:45.525Z,1.00
2017-11-21T11:32:51.902Z,1.08
2017-11-21T11:33:57.316Z,2.28
2017-11-21T11:35:02.952Z,1.35
2017-11-21T11:36:09.399Z,1.37
2017-11-21T11:37:16.080Z,1.08
2017-11-21T11:38:21.270Z,1.52
2017-11-21T11:39:26.799Z,1.20
2017-11-21T11:40:32.548Z,1.02
2017-11-21T11:41:39.300Z,1.30
2017-11-21T11:42:46.856Z,1.02
2017-11-21T11:43:52.993Z,1.70
2017-11-21T11:45:01.162Z,1.27
2017-11-21T11:46:08.721Z,1.30
2017-11-21T11:47:16.518Z,1.20
2017-11-21T11:48:22.368Z,2.20
2017-11-21T11:49:29.456Z,1.62
2017-11-21T11:50:36.993Z,1.00
2017-11-21T11:51:46.221Z,3.22
2017-11-21T11:52:54.482Z,1.35
2017-11-21T11:54:00.067Z,1.65
2017-11-21T11:55:05.121Z,0.98
2017-11-21T11:56:11.013Z,0.80
2017-11-21T11:57:16.508Z,4.80
2017-11-21T11:58:23.229Z,1.08
2017-11-21T11:59:31.361Z,0.98
2017-11-21T12:00:39.191Z,1.33
2017-11-21T12:01:44.598Z,1.08
2017-11-21T12:02:49.634Z,0.70
2017-11-21T12:03:54.739Z,1.10
2017-11-21T12:05:01.303Z,0.93
2017-11-21T12:06:09.003Z,1.00
2017-11-21T12:07:14.708Z,0.70
2017-11-21T12:08:19.587Z,0.65
2017-11-21T12:09:25.490Z,0.70
2017-11-21T12:10:30.543Z,0.82
2017-11-21T12:11:35.585Z,4.45
2017-11-21T12:12:40.677Z,1.47
2017-11-21T12:13:45.754Z,0.70
2017-11-21T12:14:51.645Z,1.00
2017-11-21T12:15:56.680Z,0.82
2017-11-21T12:17:01.779Z,0.70
2017-11-21T12:18:06.841Z,1.52
2017-11-21T12:19:12.251Z,0.80
2017-11-21T12:20:17.545Z,1.02
2017-11-21T12:21:23.106Z,0.60
2017-11-21T12:22:28.740Z,0.60
2017-11-21T12:23:34.342Z,0.90
2017-11-21T12:24:39.271Z,0.80
2017-11-21T12:25:45.164Z,0.60
2017-11-21T12:26:50.271Z,0.70
2017-11-21T12:27:56.082Z,0.73
2017-11-21T12:29:01.398Z,0.80
2017-11-21T12:30:08.047Z,0.90
2017-11-21T12:31:14.403Z,1.00
2017-11-21T12:32:22.158Z,0.88
2017-11-21T12:33:29.553Z,0.95
2017-11-21T12:34:37.108Z,0.88
2017-11-21T12:35:44.347Z,0.90
2017-11-21T12:36:49.788Z,1.20
2017-11-21T12:37:55.460Z,0.93
2017-11-21T12:39:01.433Z,1.10
2017-11-21T12:40:06.951Z,0.90
2017-11-21T12:41:13.231Z,0.80
2017-11-21T12:42:18.477Z,0.95
2017-11-21T12:43:23.821Z,0.90
2017-11-21T12:44:29.214Z,0.80
2017-11-21T12:45:34.730Z,0.98
2017-11-21T12:46:41.067Z,0.98
2017-11-21T12:47:49.163Z,0.70
2017-11-21T12:48:55.726Z,0.60
2017-11-21T12:50:01.574Z,0.80
2017-11-21T12:51:09.167Z,0.80
2017-11-21T12:52:15.051Z,0.80
2017-11-21T12:53:21.393Z,0.90
2017-11-21T12:54:27.268Z,0.70
2017-11-21T12:55:32.992Z,1.00
2017-11-21T12:56:39.362Z,0.70
2017-11-21T12:57:46.404Z,0.65
2017-11-21T12:58:51.531Z,0.70
2017-11-21T12:59:56.613Z,0.90
2017-11-21T13:01:02.526Z,1.08
2017-11-21T13:02:07.951Z,0.80
2017-11-21T13:03:13.018Z,0.98
2017-11-21T13:04:18.122Z,1.00
2017-11-21T13:05:23.290Z,3.20
2017-11-21T13:06:28.805Z,1.20
2017-11-21T13:07:34.749Z,1.10
2017-11-21T13:08:40.637Z,2.72
2017-11-21T13:09:46.844Z,1.10
2017-11-21T13:10:53.712Z,0.90
2017-11-21T13:12:00.798Z,0.90
2017-11-21T13:13:06.248Z,1.20
2017-11-21T13:14:12.151Z,0.98
2017-11-21T13:15:18.549Z,0.98
2017-11-21T13:16:26.356Z,1.00
2017-11-21T13:17:31.513Z,0.90
2017-11-21T13:18:36.922Z,0.95
2017-11-21T13:19:41.749Z,1.00
2017-11-21T13:20:47.907Z,1.27
2017-11-21T13:21:53.186Z,0.85
2017-11-21T13:22:58.324Z,1.70
2017-11-21T13:24:04.534Z,0.90
2017-11-21T13:25:11.564Z,1.73
2017-11-21T13:26:17.776Z,1.62
2017-11-21T13:27:24.669Z,1.10
2017-11-21T13:28:29.987Z,6.12
2017-11-21T13:29:35.733Z,1.55
2017-11-21T13:30:41.353Z,1.77
2017-11-21T13:31:47.436Z,1.30
2017-11-21T13:32:54.082Z,1.25
2017-11-21T13:33:59.620Z,1.15
2017-11-21T13:35:05.012Z,1.05
2017-11-21T13:36:11.196Z,1.00
2017-11-21T13:37:17.290Z,1.50
2017-11-21T13:38:22.552Z,1.60
2017-11-21T13:39:28.927Z,1.10
2017-11-21T13:40:34.170Z,1.05
2017-11-21T13:41:40.224Z,0.90
2017-11-21T13:42:46.235Z,1.00
2017-11-21T13:43:52.275Z,1.20
2017-11-21T13:44:57.741Z,0.98
2017-11-21T13:46:03.080Z,1.00
2017-11-21T13:47:08.343Z,1.05
2017-11-21T13:48:13.684Z,1.10
2017-11-21T13:49:18.617Z,1.10
2017-11-21T13:50:24.762Z,1.10
2017-11-21T13:51:30.946Z,1.20
2017-11-21T13:52:37.482Z,1.20
2017-11-21T13:53:44.593Z,1.42
2017-11-21T13:54:50.128Z,1.10
2017-11-21T13:55:55.635Z,1.67
2017-11-21T13:57:01.883Z,1.05
2017-11-21T13:58:08.006Z,1.05
2017-11-21T13:59:12.961Z,1.20
2017-11-21T14:00:18.714Z,0.85
2017-11-21T14:01:24.905Z,0.90
2017-11-21T14:04:01.456Z,1.10
2017-11-21T14:05:06.890Z,1.00
2017-11-21T14:06:11.822Z,1.40
2017-11-21T14:07:17.006Z,1.15
2017-11-21T14:08:23.173Z,1.05
2017-11-21T14:09:29.105Z,0.80
2017-11-21T14:10:36.193Z,1.20
2017-11-21T14:11:42.367Z,1.42
2017-11-21T14:12:48.223Z,1.05
2017-11-21T14:13:53.285Z,1.33
2017-11-21T14:14:58.688Z,1.33
2017-11-21T14:16:03.797Z,1.70
2017-11-21T14:17:09.069Z,0.90
2017-11-21T14:18:14.794Z,1.05
2017-11-21T14:19:20.223Z,1.00
2017-11-21T14:20:26.193Z,0.90
2017-11-21T14:21:31.380Z,1.52
2017-11-21T14:22:37.466Z,1.48
2017-11-21T14:23:45.573Z,2.30
2017-11-21T14:24:52.181Z,1.52
2017-11-21T14:25:59.520Z,1.90
2017-11-21T14:27:07.662Z,1.23
2017-11-21T14:28:14.896Z,1.58
2017-11-21T14:29:22.481Z,1.60
2017-11-21T14:30:29.069Z,1.33
2017-11-21T14:31:35.131Z,2.78
2017-11-21T14:32:41.528Z,1.80
2017-11-21T14:33:48.547Z,1.55
2017-11-21T14:34:55.046Z,1.70
2017-11-21T14:36:02.811Z,1.77
2017-11-21T14:37:09.432Z,4.40
2017-11-21T14:38:15.603Z,2.00
2017-11-21T14:39:21.566Z,1.70
2017-11-21T14:40:27.537Z,2.58
2017-11-21T14:41:32.882Z,1.70
2017-11-21T14:42:39.227Z,2.05